CST,Max TemperatureF,Mean TemperatureF,Min TemperatureF,Max Dew PointF,MeanDew PointF,Min DewpointF,Max Humidity, Mean Humidity, Min Humidity, Max Sea Level PressureIn, Mean Sea Level PressureIn, Min Sea Level PressureIn, Max VisibilityMiles, Mean VisibilityMiles, Min VisibilityMiles, Max Wind SpeedMPH, Mean Wind SpeedMPH, Max Gust SpeedMPH,PrecipitationIn, CloudCover, Events, WindDirDegrees
2013-1-1,24,15,6,10,4,-2,73,61,36,30.32,30.24,30.15,10,10,10,9,5,,0.00,0,,238
2013-1-2,35,24,14,28,18,7,81,74,64,30.22,30.10,30.05,10,10,3,7,4,,0.00,4,Snow,245
2013-1-3,33,24,15,27,18,10,80,70,59,30.41,30.34,30.21,10,10,10,15,6,24,0.00,5,,301
2013-1-4,41,28,15,25,17,10,86,68,42,30.33,30.23,30.16,10,10,10,13,3,,0.00,0,,208
2013-1-5,42,32,21,32,22,16,86,71,52,30.18,30.08,29.97,10,10,7,22,6,30,0.00,3,,245
2013-1-6,39,29,19,23,18,12,80,65,42,30.33,30.25,30.17,10,10,10,18,8,25,0.00,1,,241
2013-1-7,48,37,26,28,24,21,86,64,43,30.17,30.04,29.97,10,10,10,21,9,26,0.00,0,,202
2013-1-8,51,38,26,34,29,21,86,68,47,30.13,29.94,29.83,10,10,10,21,6,28,0.00,0,,208
2013-1-9,53,40,26,34,29,21,86,70,44,30.44,30.33,30.13,10,10,7,8,1,,0.00,0,,200
2013-1-10,46,40,35,37,31,21,87,69,42,30.35,30.00,29.70,10,8,0,15,4,16,0.13,6,Fog-Rain,143
2013-1-11,57,47,37,48,42,30,87,78,62,29.70,29.54,29.42,10,7,0,23,10,31,0.01,5,Fog,182
2013-1-12,35,26,15,28,11,3,75,57,43,30.13,30.01,29.71,10,10,10,24,15,31,0.00,2,,301
2013-1-13,24,17,10,7,3,-2,73,57,31,30.34,30.21,30.10,10,10,5,14,8,20,0.00,3,Snow,310
2013-1-14,32,19,6,16,8,1,79,65,34,30.47,30.40,30.34,10,10,10,8,1,,0.00,0,,216
2013-1-15,37,24,12,18,11,5,79,60,28,30.37,30.25,30.08,10,10,10,10,2,,0.00,0,,198
2013-1-16,53,37,21,32,24,12,81,61,41,30.22,30.01,29.93,10,10,10,16,8,20,0.00,2,,260
2013-1-17,44,32,21,28,22,14,86,68,44,30.47,30.38,30.23,10,9,4,14,5,,0.00,0,,301
2013-1-18,57,42,26,34,28,21,86,62,33,30.31,30.05,29.91,10,10,7,25,8,33,0.00,0,,205
2013-1-19,57,40,24,30,25,9,81,56,27,30.33,30.02,29.86,10,10,10,18,7,28,0.00,0,,293
2013-1-20,23,18,12,10,7,1,79,60,42,30.41,30.37,30.32,10,10,10,13,7,16,0.00,3,,351
2013-1-21,17,12,6,9,-5,-11,73,44,30,30.46,30.40,30.36,10,10,10,18,8,26,0.00,5,,316
2013-1-22,21,16,12,9,3,-8,73,60,38,30.41,30.34,30.27,10,9,2,5,0,,0.01,5,Snow,137
2013-1-23,35,24,10,19,9,-2,79,60,44,30.52,30.28,30.17,10,10,10,21,5,25,0.00,0,,348
2013-1-24,24,15,6,5,-4,-8,57,44,30,30.56,30.40,30.19,10,10,10,13,9,22,0.00,2,,104
2013-1-25,50,32,14,23,15,7,80,55,28,30.26,30.17,30.11,10,10,10,14,4,20,0.00,0,,308
2013-1-26,51,34,17,19,13,7,80,50,24,30.29,30.19,30.06,10,10,10,14,7,18,0.00,0,,130
2013-1-27,46,42,37,43,35,18,87,78,36,30.05,29.84,29.70,10,4,0,15,9,20,0.33,8,Fog-Rain,157
2013-1-28,57,46,37,52,41,34,88,84,81,29.88,29.74,29.53,10,2,0,9,4,,0.01,7,Fog,129
2013-1-29,62,48,33,57,34,28,87,81,75,29.69,29.61,29.51,10,7,2,18,12,30,0.03,8,Rain-Snow,343
2013-1-30,33,24,15,28,17,9,86,71,59,29.92,29.76,29.58,10,7,0,26,17,34,0.06,6,Snow,322
2013-1-31,17,10,3,9,-2,-9,73,59,48,30.42,30.17,29.92,10,8,2,23,12,34,0.00,3,,309